Time;durP1;ratioP1;P1;durP2;ratioP2;P2;SDS_P1;SDS_P2;PMS_P1;PMS_P2;Temp;Humidity;BMP_temperature;BMP_pressure;BME280_temperature;BME280_humidity;BME280_pressure;Samples;Min_cycle;Max_cycle;Signal;HPM_P1;HPM_P2
2023/01/20 00:01:42;;;;;;;9.15;4.75;;;2.10;99.90;;;1.79;nan;100090.72;5049828;28;20238;-65
2023/01/20 00:04:09;;;;;;;7.57;4.13;;;2.10;99.90;;;1.77;nan;100084.00;5033235;28;20202;-65
2023/01/20 00:06:36;;;;;;;5.88;4.32;;;2.10;99.90;;;1.73;nan;100087.56;5032180;28;20885;-66
2023/01/20 00:09:04;;;;;;;5.60;4.00;;;2.10;99.90;;;1.72;nan;100091.91;5030950;28;20721;-64
2023/01/20 00:11:32;;;;;;;8.60;4.40;;;2.00;99.90;;;1.73;nan;100097.88;5032008;28;20209;-65
2023/01/20 00:14:01;;;;;;;8.38;4.95;;;2.00;99.90;;;1.70;nan;100093.72;4998521;28;20213;-65
2023/01/20 00:16:30;;;;;;;6.30;4.00;;;2.00;99.90;;;1.68;nan;100100.66;5048967;28;20205;-65
2023/01/20 00:18:58;;;;;;;7.70;4.93;;;2.00;99.90;;;1.64;nan;100099.09;5040754;28;20622;-67
2023/01/20 00:21:25;;;;;;;7.50;4.63;;;2.00;99.90;;;1.62;nan;100100.09;5033327;28;20229;-66
2023/01/20 00:23:52;;;;;;;6.38;4.50;;;2.00;99.90;;;1.55;nan;100107.25;5022594;28;20202;-66
2023/01/20 00:26:22;;;;;;;7.68;4.43;;;1.90;99.90;;;1.51;nan;100110.84;5055901;28;20266;-66
2023/01/20 00:28:53;;;;;;;11.98;5.78;;;1.90;99.90;;;1.49;nan;100102.38;5053582;28;20217;-65
2023/01/20 00:31:29;;;;;;;8.35;4.70;;;1.80;99.90;;;1.50;nan;100112.56;5040522;28;20284;-66
2023/01/20 00:33:59;;;;;;;5.35;3.58;;;1.80;99.90;;;1.51;nan;100110.84;5030753;28;20206;-65
2023/01/20 00:36:32;;;;;;;4.53;3.85;;;1.80;99.90;;;1.47;nan;100112.69;5032265;28;20834;-65
2023/01/20 00:39:01;;;;;;;9.27;5.25;;;1.80;99.90;;;1.46;nan;100116.19;5031276;28;20230;-65
2023/01/20 00:41:28;;;;;;;9.15;5.45;;;1.80;99.90;;;1.48;nan;100119.53;5033537;28;20217;-65
2023/01/20 00:43:55;;;;;;;9.13;5.25;;;1.80;99.90;;;1.46;nan;100130.75;5049262;28;20629;-64
2023/01/20 00:46:22;;;;;;;9.85;5.25;;;1.80;99.90;;;1.45;nan;100134.22;5033141;28;20597;-65
2023/01/20 00:48:50;;;;;;;5.72;4.47;;;1.80;99.90;;;1.44;nan;100135.97;5035031;28;20227;-65
2023/01/20 00:51:16;;;;;;;8.63;5.00;;;1.80;99.90;;;1.46;nan;100131.59;5068870;28;20201;-65
2023/01/20 00:53:43;;;;;;;7.60;4.95;;;1.80;99.90;;;1.44;nan;100137.72;5055939;28;20246;-64
2023/01/20 00:56:10;;;;;;;8.63;5.18;;;1.80;99.90;;;1.41;nan;100133.53;5037048;28;20197;-64
2023/01/20 00:58:37;;;;;;;9.05;4.30;;;1.70;99.90;;;1.42;nan;100145.50;5033875;28;20278;-65
2023/01/20 01:01:04;;;;;;;7.85;4.70;;;1.80;99.90;;;1.42;nan;100144.66;5052329;28;20201;-66
2023/01/20 01:03:32;;;;;;;6.55;4.38;;;1.80;99.90;;;1.42;nan;100144.66;5040884;28;20194;-64
2023/01/20 01:06:12;;;;;;;5.75;3.50;;;1.80;99.90;;;1.42;nan;100153.22;5044750;28;20190;-64
2023/01/20 01:08:40;;;;;;;6.63;4.28;;;1.80;99.90;;;1.43;nan;100156.59;5036140;28;20213;-65
2023/01/20 01:11:09;;;;;;;7.60;4.70;;;1.70;99.90;;;1.44;nan;100159.13;5033156;28;20262;-65
2023/01/20 01:13:37;;;;;;;9.68;4.93;;;1.80;99.90;;;1.46;nan;100159.03;5037324;28;20267;-66
2023/01/20 01:16:15;;;;;;;9.05;5.30;;;1.80;99.90;;;1.47;nan;100158.97;5052831;28;20686;-65
2023/01/20 01:18:42;;;;;;;4.18;3.80;;;1.80;99.90;;;1.47;nan;100174.41;5043621;28;20236;-66
2023/01/20 01:21:13;;;;;;;5.90;4.22;;;1.80;99.90;;;1.46;nan;100170.16;5040726;28;20197;-65
2023/01/20 01:23:40;;;;;;;5.75;4.10;;;1.80;99.90;;;1.45;nan;100171.06;5030278;28;20198;-65
2023/01/20 01:26:08;;;;;;;5.07;4.45;;;1.80;99.90;;;1.45;nan;100180.50;5041775;28;20212;-65
2023/01/20 01:28:35;;;;;;;6.20;4.18;;;1.80;99.90;;;1.43;nan;100175.44;5029535;28;20221;-66
2023/01/20 01:31:05;;;;;;;6.72;4.38;;;1.80;99.90;;;1.40;nan;100185.84;5029071;28;20583;-66
2023/01/20 01:33:33;;;;;;;7.20;4.20;;;1.70;99.90;;;1.39;nan;100185.91;5030211;28;20209;-67
2023/01/20 01:36:02;;;;;;;4.75;4.05;;;1.70;99.90;;;1.36;nan;100186.03;5054853;28;20726;-64
2023/01/20 01:38:29;;;;;;;8.65;4.50;;;1.70;99.90;;;1.36;nan;100189.41;5012203;28;20279;-65
2023/01/20 01:40:56;;;;;;;7.18;4.40;;;1.70;99.90;;;1.33;nan;100192.13;5036797;28;20198;-65
2023/01/20 01:43:31;;;;;;;7.35;4.65;;;1.70;99.90;;;1.32;nan;100195.59;5050737;28;20502;-65
2023/01/20 01:45:58;;;;;;;9.65;5.10;;;1.70;99.90;;;1.33;nan;100204.16;5052021;28;20228;-65
2023/01/20 01:48:52;;;;;;;7.60;4.05;;;1.70;99.90;;;1.32;nan;100197.34;5038590;28;20605;-65
2023/01/20 01:51:25;;;;;;;6.65;4.45;;;1.70;99.90;;;1.31;nan;100204.22;5032381;28;20197;-65
2023/01/20 01:54:07;;;;;;;5.45;3.25;;;1.70;99.90;;;1.29;nan;100194.91;5031126;28;20201;-67
2023/01/20 01:56:35;;;;;;;4.55;3.78;;;1.60;99.90;;;1.29;nan;100205.19;5027758;28;20198;-65
2023/01/20 01:59:03;;;;;;;5.03;3.83;;;1.60;99.90;;;1.26;nan;100203.56;5035926;28;20256;-66
2023/01/20 02:01:35;;;;;;;7.55;4.38;;;1.60;99.90;;;1.23;nan;100203.69;5033709;28;20245;-66
2023/01/20 02:04:12;;;;;;;6.88;4.90;;;1.60;99.90;;;1.21;nan;100205.50;5051078;28;20197;-65
2023/01/20 02:06:46;;;;;;;7.45;4.05;;;1.60;99.90;;;1.20;nan;100205.53;5062145;28;20625;-65
2023/01/20 02:09:13;;;;;;;7.20;4.13;;;1.50;99.90;;;1.15;nan;100213.44;5045142;28;20217;-65
2023/01/20 02:11:49;;;;;;;6.97;4.25;;;1.50;99.90;;;1.13;nan;100210.09;5052924;28;20201;-66
2023/01/20 02:14:25;;;;;;;7.28;4.00;;;1.50;99.90;;;1.11;nan;100208.50;5037713;28;20722;-65
2023/01/20 02:17:01;;;;;;;2.53;2.30;;;1.50;99.90;;;1.07;nan;100214.63;5027301;28;20210;-65
2023/01/20 02:20:18;;;;;;;5.18;4.30;;;1.40;99.90;;;1.02;nan;100212.28;5062728;28;20221;-65
2023/01/20 02:23:10;;;;;;;4.95;3.30;;;1.40;99.90;;;1.03;nan;100218.22;5032911;28;20702;-65
2023/01/20 02:25:53;;;;;;;7.70;4.18;;;1.40;99.90;;;1.01;nan;100222.59;5059853;28;20208;-65
2023/01/20 02:29:00;;;;;;;4.68;3.90;;;1.40;99.90;;;1.01;nan;100223.44;5036334;28;20244;-65
2023/01/20 02:31:59;;;;;;;2.97;2.72;;;1.40;99.90;;;1.00;nan;100232.00;5053812;28;20208;-67
2023/01/20 02:34:39;;;;;;;4.85;4.00;;;1.40;99.90;;;1.02;nan;100237.97;5033474;28;20671;-66
2023/01/20 02:37:15;;;;;;;6.85;4.32;;;1.40;99.90;;;1.04;nan;100235.31;5037414;28;20189;-67
2023/01/20 02:40:12;;;;;;;6.97;4.47;;;1.40;99.90;;;1.07;nan;100238.59;5033681;28;20614;-65
2023/01/20 02:42:54;;;;;;;5.90;4.15;;;1.40;99.90;;;1.09;nan;100231.66;5040194;28;20763;-64
2023/01/20 02:45:49;;;;;;;7.22;4.15;;;1.40;99.90;;;1.13;nan;100243.50;5032546;28;20202;-64
2023/01/20 02:48:24;;;;;;;9.70;5.13;;;1.50;99.90;;;1.13;nan;100246.06;5038458;28;20224;-65
2023/01/20 02:51:00;;;;;;;6.15;4.32;;;1.50;99.90;;;1.14;nan;100252.03;5066931;28;20696;-65
2023/01/20 02:53:36;;;;;;;4.00;3.45;;;1.50;99.90;;;1.15;nan;100244.25;5052257;28;20689;-64
2023/01/20 02:56:04;;;;;;;5.70;3.55;;;1.50;99.90;;;1.17;nan;100255.31;5035945;28;20204;-65
2023/01/20 02:58:44;;;;;;;6.28;4.57;;;1.50;99.90;;;1.19;nan;100255.28;5041646;28;20209;-65
2023/01/20 03:01:31;;;;;;;6.47;3.95;;;1.50;99.90;;;1.17;nan;100252.75;5047185;28;20575;-65
2023/01/20 03:04:01;;;;;;;5.10;3.85;;;1.50;99.90;;;1.16;nan;100263.94;5053575;28;20225;-64
2023/01/20 03:06:34;;;;;;;4.18;3.80;;;1.50;99.90;;;1.16;nan;100261.38;5049308;28;20191;-66
2023/01/20 03:09:10;;;;;;;4.88;3.60;;;1.50;99.90;;;1.17;nan;100265.59;5023058;28;20730;-65
2023/01/20 03:11:46;;;;;;;5.50;3.90;;;1.50;99.90;;;1.19;nan;100262.97;5048675;28;20224;-65
2023/01/20 03:14:14;;;;;;;7.45;4.72;;;1.50;99.90;;;1.20;nan;100273.19;5045577;28;20262;-64
2023/01/20 03:16:42;;;;;;;5.95;4.30;;;1.60;99.90;;;1.21;nan;100269.75;5051050;28;20192;-64
2023/01/20 03:19:09;;;;;;;5.40;3.00;;;1.60;99.90;;;1.22;nan;100270.56;5041308;28;20237;-65
2023/01/20 03:21:36;;;;;;;3.00;2.67;;;1.60;99.90;;;1.22;nan;100271.41;5035277;28;20249;-66
2023/01/20 03:24:05;;;;;;;4.97;3.40;;;1.60;99.90;;;1.19;nan;100273.25;5036418;28;20229;-65
2023/01/20 03:26:33;;;;;;;3.17;2.85;;;1.50;99.90;;;1.18;nan;100279.28;5053946;28;20201;-65
2023/01/20 03:29:07;;;;;;;4.55;2.55;;;1.50;99.90;;;1.20;nan;100285.19;5045143;28;20234;-66
2023/01/20 03:31:42;;;;;;;5.60;3.15;;;1.50;99.90;;;1.13;nan;100274.31;5038849;28;20254;-65
2023/01/20 03:34:14;;;;;;;4.82;3.22;;;1.50;99.90;;;1.12;nan;100284.66;5042036;28;20312;-66
2023/01/20 03:36:43;;;;;;;3.63;2.65;;;1.50;99.90;;;1.08;nan;100276.25;5041970;28;20204;-65
2023/01/20 03:39:10;;;;;;;5.28;3.67;;;1.40;99.90;;;1.02;nan;100294.47;5051025;28;20244;-66
2023/01/20 03:41:51;;;;;;;8.15;4.93;;;1.40;99.90;;;0.99;nan;100293.75;5021556;28;20210;-66
2023/01/20 03:45:00;;;;;;;4.65;2.85;;;1.30;99.90;;;0.96;nan;100293.88;5053071;28;20279;-66
2023/01/20 03:47:57;;;;;;;4.82;3.05;;;1.30;99.90;;;0.95;nan;100302.47;5014422;28;20217;-65
2023/01/20 03:50:54;;;;;;;4.75;3.00;;;1.30;99.90;;;0.93;nan;100299.97;5060849;28;20207;-66
2023/01/20 03:53:35;;;;;;;2.88;2.58;;;1.30;99.90;;;0.88;nan;100308.72;5034245;28;20228;-65
2023/01/20 03:56:23;;;;;;;4.82;3.28;;;1.20;99.90;;;0.84;nan;100304.59;5068300;28;20200;-65
2023/01/20 03:58:53;;;;;;;6.82;4.57;;;1.20;99.90;;;0.81;nan;100305.53;5054879;28;20233;-65
2023/01/20 04:01:27;;;;;;;22.30;4.70;;;1.20;99.90;;;0.80;nan;100309.00;5029913;28;20205;-64
2023/01/20 04:03:56;;;;;;;9.27;4.93;;;1.20;99.90;;;0.78;nan;100316.78;5026571;28;20262;-65
2023/01/20 04:06:26;;;;;;;5.97;4.15;;;1.10;99.90;;;0.78;nan;100318.50;5051640;28;20213;-65
2023/01/20 04:08:59;;;;;;;5.25;4.15;;;1.10;99.90;;;0.76;nan;100313.44;5033309;28;20270;-65
2023/01/20 04:11:26;;;;;;;4.32;2.75;;;1.10;99.90;;;0.74;nan;100314.38;5054532;28;20192;-65
2023/01/20 04:13:54;;;;;;;4.95;3.97;;;1.10;99.90;;;0.74;nan;100322.09;5023295;28;20232;-64
2023/01/20 04:16:22;;;;;;;7.05;4.07;;;1.10;99.90;;;0.68;nan;100318.00;5050812;28;20258;-65
2023/01/20 04:18:51;;;;;;;7.30;4.65;;;1.10;99.90;;;0.66;nan;100318.97;5066566;28;20240;-66
2023/01/20 04:21:41;;;;;;;5.93;4.00;;;1.00;99.90;;;0.62;nan;100319.94;5032722;28;20206;-65
2023/01/20 04:24:23;;;;;;;3.10;2.80;;;1.00;99.90;;;0.61;nan;100329.41;5033726;28;20230;-64
2023/01/20 04:26:50;;;;;;;4.20;3.58;;;1.00;99.90;;;0.60;nan;100326.88;5050564;28;20202;-64
2023/01/20 04:29:17;;;;;;;4.65;3.65;;;1.00;99.90;;;0.58;nan;100331.22;5032334;28;20218;-65
2023/01/20 04:31:44;;;;;;;7.95;4.63;;;0.90;99.90;;;0.56;nan;100336.41;5051301;28;20623;-65
2023/01/20 04:34:15;;;;;;;4.88;3.17;;;0.90;99.90;;;0.53;nan;100335.69;5051442;28;20205;-65
2023/01/20 04:36:42;;;;;;;6.25;3.92;;;0.90;99.90;;;0.52;nan;100329.72;5038660;28;20202;-65
2023/01/20 04:39:09;;;;;;;4.93;3.58;;;0.90;99.90;;;0.49;nan;100336.69;5036581;28;20287;-65
2023/01/20 04:41:36;;;;;;;7.63;4.65;;;0.90;99.90;;;0.46;nan;100340.22;5059317;28;20198;-66
2023/01/20 04:44:03;;;;;;;4.78;3.75;;;0.80;99.90;;;0.44;nan;100342.00;5059014;28;20224;-66
2023/01/20 04:46:30;;;;;;;4.95;2.22;;;0.80;99.90;;;0.41;nan;100346.38;5059179;28;20594;-66
2023/01/20 04:48:57;;;;;;;7.53;4.53;;;0.80;99.90;;;0.37;nan;100343.09;5051083;28;20256;-63
2023/01/20 04:51:24;;;;;;;3.38;2.70;;;0.70;99.90;;;0.36;nan;100353.41;5047153;28;20640;-66
2023/01/20 04:53:56;;;;;;;6.13;4.50;;;0.80;99.90;;;0.34;nan;100353.44;5051041;28;20267;-66
2023/01/20 04:56:23;;;;;;;6.82;4.50;;;0.70;99.90;;;0.31;nan;100358.72;5032445;28;20197;-65
2023/01/20 04:58:51;;;;;;;4.35;3.35;;;0.70;99.90;;;0.27;nan;100353.72;5015419;28;20229;-63
2023/01/20 05:01:18;;;;;;;8.07;4.55;;;0.70;99.90;;;0.27;nan;100361.44;5050235;28;20200;-65
2023/01/20 05:03:45;;;;;;;5.82;3.92;;;0.60;99.90;;;0.25;nan;100364.06;5033215;28;20237;-66
2023/01/20 05:06:12;;;;;;;8.52;4.38;;;0.60;99.90;;;0.26;nan;100365.72;5045580;28;20637;-66
2023/01/20 05:08:39;;;;;;;6.05;3.97;;;0.60;99.90;;;0.28;nan;100365.69;5046294;28;20225;-64
2023/01/20 05:11:06;;;;;;;5.07;3.30;;;0.70;99.90;;;0.28;nan;100366.50;5038144;28;20201;-67
2023/01/20 05:13:37;;;;;;;5.35;4.07;;;0.60;99.90;;;0.25;nan;100365.78;5037245;28;20210;-65
2023/01/20 05:16:09;;;;;;;6.65;4.13;;;0.60;99.90;;;0.26;nan;100367.44;5063374;28;20209;-67
2023/01/20 05:18:36;;;;;;;7.38;4.53;;;0.60;99.90;;;0.24;nan;100374.34;5026471;28;20240;-66
2023/01/20 05:21:06;;;;;;;10.35;5.03;;;0.60;99.90;;;0.24;nan;100364.09;5055665;28;20205;-65
2023/01/20 05:23:34;;;;;;;4.57;3.50;;;0.60;99.90;;;0.21;nan;100379.59;5030525;28;20236;-65
2023/01/20 05:26:01;;;;;;;7.72;3.90;;;0.60;99.90;;;0.20;nan;100377.91;5017270;28;20202;-65
2023/01/20 05:28:28;;;;;;;6.25;3.75;;;0.60;99.90;;;0.19;nan;100383.94;5049343;28;20217;-65
2023/01/20 05:30:54;;;;;;;6.90;4.10;;;0.60;99.90;;;0.18;nan;100384.81;5049014;28;20204;-67
2023/01/20 05:33:22;;;;;;;8.43;4.65;;;0.60;99.90;;;0.15;nan;100387.50;5041638;28;20202;-65
2023/01/20 05:35:49;;;;;;;8.18;4.03;;;0.60;99.90;;;0.11;nan;100389.31;5051602;28;20209;-67
2023/01/20 05:38:16;;;;;;;6.28;4.55;;;0.50;99.90;;;0.10;nan;100394.50;5046945;28;20237;-66
2023/01/20 05:40:43;;;;;;;3.45;3.22;;;0.50;99.90;;;0.09;nan;100395.38;5030610;28;20235;-64
2023/01/20 05:43:10;;;;;;;5.78;4.13;;;0.50;99.90;;;0.06;nan;100401.47;5040896;28;20240;-66
2023/01/20 05:45:38;;;;;;;7.25;4.50;;;0.50;99.90;;;0.08;nan;100409.13;5033074;28;20735;-65
2023/01/20 05:48:05;;;;;;;4.88;3.60;;;0.50;99.90;;;0.08;nan;100409.97;5037914;28;20217;-67
2023/01/20 05:50:33;;;;;;;5.82;3.58;;;0.50;99.90;;;0.09;nan;100415.91;5029207;28;20210;-66
2023/01/20 05:52:59;;;;;;;8.85;4.90;;;0.50;99.90;;;0.09;nan;100419.31;5030355;28;20218;-65
2023/01/20 05:55:26;;;;;;;6.72;3.95;;;0.50;99.90;;;0.08;nan;100419.38;5022515;28;20212;-65
2023/01/20 05:57:53;;;;;;;5.68;4.03;;;0.50;99.90;;;0.10;nan;100420.16;5032447;28;20225;-67
2023/01/20 06:00:21;;;;;;;4.75;3.47;;;0.50;99.90;;;0.09;nan;100426.16;5037728;28;20210;-66
2023/01/20 06:02:48;;;;;;;3.83;3.08;;;0.50;99.90;;;0.08;nan;100427.06;5055079;28;20240;-65
2023/01/20 06:05:15;;;;;;;11.93;4.90;;;0.50;99.90;;;0.04;nan;100422.94;5052970;28;20664;-65
2023/01/20 06:07:42;;;;;;;4.22;3.72;;;0.40;99.90;;;0.00;nan;100430.72;5063537;28;20220;-65
2023/01/20 06:10:10;;;;;;;6.10;4.60;;;0.40;99.90;;;-0.02;nan;100435.06;5070017;28;20208;-66
2023/01/20 06:12:37;;;;;;;14.77;9.02;;;0.40;99.90;;;-0.04;nan;100433.41;5053543;28;20633;-64
2023/01/20 06:15:05;;;;;;;8.48;5.68;;;0.40;99.90;;;-0.06;nan;100430.91;5030282;28;20213;-65
2023/01/20 06:17:32;;;;;;;9.75;5.30;;;0.40;99.90;;;-0.06;nan;100442.88;5019434;28;20712;-65
2023/01/20 06:19:59;;;;;;;7.32;4.65;;;0.30;99.90;;;-0.08;nan;100448.06;5065241;28;20204;-65
2023/01/20 06:22:26;;;;;;;8.73;4.55;;;0.30;99.90;;;-0.08;nan;100453.19;5022794;28;20684;-66
2023/01/20 06:24:53;;;;;;;6.05;4.32;;;0.30;99.90;;;-0.06;nan;100458.28;5016651;28;20221;-65
2023/01/20 06:27:20;;;;;;;5.20;3.72;;;0.30;99.90;;;-0.07;nan;100454.91;5036571;28;20205;-65
2023/01/20 06:29:49;;;;;;;10.40;4.32;;;0.30;99.90;;;-0.09;nan;100451.53;5059366;28;20663;-65
2023/01/20 06:32:16;;;;;;;4.90;3.72;;;0.30;99.90;;;-0.11;nan;100460.97;5042314;28;20201;-66
2023/01/20 06:34:44;;;;;;;7.13;4.05;;;0.30;99.90;;;-0.12;nan;100461.03;5019967;28;20205;-65
2023/01/20 06:37:12;;;;;;;5.10;4.15;;;0.20;99.90;;;-0.16;nan;100467.16;5045345;28;20927;-65
2023/01/20 06:39:39;;;;;;;8.02;4.35;;;0.20;99.90;;;-0.19;nan;100465.50;5030005;28;20214;-65
2023/01/20 06:42:06;;;;;;;8.95;4.50;;;0.20;99.90;;;-0.17;nan;100468.06;5038474;28;20251;-63
2023/01/20 06:44:33;;;;;;;7.68;4.20;;;0.20;99.90;;;-0.22;nan;100469.91;5058917;28;20577;-65
2023/01/20 06:47:00;;;;;;;4.50;3.03;;;0.20;99.90;;;-0.26;nan;100466.59;5044308;28;20206;-64
2023/01/20 06:49:27;;;;;;;5.65;4.45;;;0.20;99.90;;;-0.28;nan;100473.47;5047489;28;20237;-65
2023/01/20 06:51:54;;;;;;;8.70;4.35;;;0.10;99.90;;;-0.27;nan;100470.03;5057015;28;20201;-66
2023/01/20 06:54:21;;;;;;;5.65;3.90;;;0.10;99.90;;;-0.28;nan;100476.03;5033203;28;20236;-65
2023/01/20 06:56:48;;;;;;;6.88;4.10;;;0.10;99.90;;;-0.30;nan;100482.94;5042302;28;20216;-66
2023/01/20 06:59:15;;;;;;;8.30;4.47;;;0.10;99.90;;;-0.31;nan;100488.97;5055955;28;20737;-65
2023/01/20 07:01:42;;;;;;;6.90;3.95;;;0.10;99.90;;;-0.30;nan;100495.75;5032942;28;20213;-65
2023/01/20 07:04:13;;;;;;;6.40;3.47;;;0.10;99.90;;;-0.30;nan;100500.06;5033294;28;20283;-66
2023/01/20 07:06:41;;;;;;;5.05;4.13;;;0.10;99.90;;;-0.30;nan;100507.75;5045139;28;20193;-63
2023/01/20 07:09:10;;;;;;;6.20;3.92;;;0.10;99.90;;;-0.31;nan;100504.34;5044637;28;20651;-65
2023/01/20 07:11:38;;;;;;;7.05;3.50;;;0.10;99.90;;;-0.30;nan;100512.88;5058172;28;20713;-64
2023/01/20 07:14:06;;;;;;;8.45;5.00;;;0.10;99.90;;;-0.28;nan;100517.06;5021779;28;20217;-67
2023/01/20 07:16:33;;;;;;;4.90;3.50;;;0.10;99.90;;;-0.29;nan;100519.69;5016072;28;20217;-65
2023/01/20 07:19:01;;;;;;;7.93;4.95;;;0.10;99.90;;;-0.27;nan;100525.59;5040113;28;20241;-65
2023/01/20 07:21:28;;;;;;;8.23;5.10;;;0.10;99.90;;;-0.27;nan;100531.56;5039317;28;20683;-66
2023/01/20 07:23:58;;;;;;;6.65;4.60;;;0.10;99.90;;;-0.26;nan;100530.69;5055879;28;20547;-66
2023/01/20 07:26:25;;;;;;;4.40;3.22;;;0.10;99.90;;;-0.24;nan;100536.63;5041376;28;20194;-66
2023/01/20 07:28:53;;;;;;;5.18;3.70;;;0.20;99.90;;;-0.19;nan;100537.31;5046983;28;20227;-66
2023/01/20 07:31:23;;;;;;;5.03;3.55;;;0.20;99.90;;;-0.14;nan;100543.16;5057855;28;20196;-66
2023/01/20 07:33:52;;;;;;;3.88;3.45;;;0.20;99.90;;;-0.09;nan;100538.72;5047706;28;20205;-65
2023/01/20 07:36:20;;;;;;;8.70;4.60;;;0.30;99.90;;;0.00;nan;100550.44;5034978;28;20201;-67
2023/01/20 07:38:49;;;;;;;6.88;4.35;;;0.40;99.90;;;0.09;nan;100546.72;5053994;28;20280;-65
2023/01/20 07:41:18;;;;;;;7.00;5.05;;;0.40;99.90;;;0.16;nan;100555.94;5022307;28;20204;-65
2023/01/20 07:43:49;;;;;;;6.05;4.65;;;0.50;99.90;;;0.25;nan;100550.53;5053088;28;20715;-65
2023/01/20 07:46:17;;;;;;;8.32;4.60;;;0.60;99.90;;;0.33;nan;100543.41;5058015;28;20196;-65
2023/01/20 07:48:44;;;;;;;11.20;5.90;;;0.70;99.90;;;0.43;nan;100550.78;5050455;28;20223;-66
2023/01/20 07:51:14;;;;;;;8.35;4.70;;;0.80;99.90;;;0.55;nan;100549.56;5053596;28;20204;-65
2023/01/20 07:53:45;;;;;;;6.88;4.57;;;0.90;99.90;;;0.65;nan;100545.78;5044603;28;20214;-67
2023/01/20 07:56:20;;;;;;;5.53;3.45;;;1.00;99.90;;;0.83;nan;100545.19;5063695;28;20238;-66
2023/01/20 07:58:49;;;;;;;9.05;5.15;;;1.20;99.90;;;1.12;nan;100557.03;5066646;28;20651;-65
2023/01/20 08:01:43;;;;;;;6.55;4.70;;;1.40;99.90;;;1.63;nan;100554.34;5051468;28;20579;-66
2023/01/20 08:04:11;;;;;;;4.63;3.80;;;1.90;99.90;;;2.15;nan;100560.03;5038319;28;20226;-66
2023/01/20 08:06:39;;;;;;;4.88;3.35;;;2.40;99.90;;;2.73;nan;100563.72;5031588;28;20202;-66
2023/01/20 08:09:10;;;;;;;9.45;5.15;;;3.00;99.90;;;2.90;nan;100566.44;5034455;28;20252;-66
2023/01/20 08:11:38;;;;;;;3.97;3.40;;;3.20;99.90;;;3.01;nan;100576.31;5054997;28;20624;-64
2023/01/20 08:14:05;;;;;;;5.78;3.60;;;3.30;99.90;;;3.08;nan;100573.41;5041671;28;20301;-64
2023/01/20 08:16:32;;;;;;;7.18;4.13;;;3.40;99.90;;;3.00;nan;100577.22;5049599;28;20208;-66
2023/01/20 08:18:59;;;;;;;6.55;4.00;;;3.30;99.90;;;2.87;nan;100576.91;5038768;28;20286;-65
2023/01/20 08:21:30;;;;;;;10.48;5.07;;;3.20;99.90;;;2.86;nan;100582.94;5037574;28;20690;-65
2023/01/20 08:24:00;;;;;;;6.03;4.55;;;3.20;99.90;;;3.22;nan;100587.44;5030805;28;20284;-66
2023/01/20 08:26:29;;;;;;;7.38;5.22;;;3.50;99.90;;;4.39;nan;100587.25;5032297;28;20201;-66
2023/01/20 08:29:06;;;;;;;8.23;5.60;;;4.50;99.90;;;5.83;nan;100595.50;5037982;28;20275;-64
2023/01/20 08:31:33;;;;;;;6.83;5.60;;;6.00;99.90;;;7.02;nan;100594.00;5045746;28;20205;-65
2023/01/20 08:34:00;;;;;;;10.00;6.50;;;7.30;99.90;;;8.10;nan;100606.50;5067897;28;20964;-65
2023/01/20 08:36:34;;;;;;;11.27;6.10;;;8.50;99.90;;;8.36;nan;100600.53;5050280;28;20706;-65
2023/01/20 08:39:04;;;;;;;7.80;5.63;;;8.90;99.90;;;8.14;nan;100602.75;5010346;28;20645;-65
2023/01/20 08:41:35;;;;;;;6.67;4.80;;;8.60;99.90;;;7.88;nan;100606.16;5031633;28;21192;-66
2023/01/20 08:44:05;;;;;;;9.23;6.43;;;8.40;99.90;;;8.71;nan;100604.31;5050988;28;20665;-66
2023/01/20 08:46:33;;;;;;;8.27;5.67;;;9.00;99.90;;;9.35;nan;100606.94;5042566;28;20632;-66
2023/01/20 08:49:00;;;;;;;7.00;5.50;;;9.80;99.90;;;10.18;nan;100604.72;5031378;28;20683;-66
2023/01/20 08:51:30;;;;;;;15.20;8.07;;;10.50;99.90;;;11.96;nan;100613.06;5017741;28;20655;-66
2023/01/20 08:53:58;;;;;;;20.17;12.17;;;12.30;99.90;;;13.81;nan;100617.81;5043644;28;21194;-66
2023/01/20 08:56:26;;;;;;;19.90;11.40;;;14.20;95.80;;;15.80;nan;100614.66;5038432;28;20689;-66
2023/01/20 08:58:55;;;;;;;17.73;9.70;;;16.20;90.70;;;17.62;nan;100614.22;5056728;28;21443;-66
2023/01/20 09:01:28;;;;;;;20.20;12.10;;;18.20;78.00;;;19.16;nan;100610.28;5060733;28;20627;-65
2023/01/20 09:03:56;;;;;;;16.20;11.27;;;19.90;69.70;;;20.46;nan;100624.84;5043036;28;20697;-66
2023/01/20 09:06:48;;;;;;;18.43;10.63;;;21.30;64.00;;;21.71;nan;100627.88;5046280;28;20627;-65
2023/01/20 09:09:18;;;;;;;13.57;10.20;;;22.70;58.30;;;22.75;nan;100639.91;5053795;28;20658;-64
2023/01/20 09:11:49;;;;;;;14.30;9.77;;;23.70;55.40;;;23.05;nan;100636.13;5037985;28;21039;-67
2023/01/20 09:14:22;;;;;;;13.80;9.70;;;24.20;52.20;;;22.75;nan;100633.75;5021269;28;20638;-65
2023/01/20 09:16:49;;;;;;;12.90;8.77;;;24.20;51.10;;;22.39;nan;100641.69;5036281;28;20640;-65
2023/01/20 09:19:17;;;;;;;11.88;8.85;;;23.80;50.30;;;21.77;nan;100648.38;5022678;28;1093119;-65
2023/01/20 09:21:44;;;;;;;11.00;7.90;;;23.30;50.20;;;20.42;nan;100640.25;5039924;28;20669;-65
2023/01/20 09:24:10;;;;;;;11.80;9.00;;;22.10;50.50;;;18.40;nan;100642.16;5067654;28;20658;-64
2023/01/20 09:26:40;;;;;;;11.87;8.87;;;20.10;52.70;;;15.92;nan;100642.47;5030602;28;20633;-64
2023/01/20 09:29:11;;;;;;;12.23;8.20;;;17.40;56.00;;;13.85;nan;100636.72;5037810;28;20664;-65
2023/01/20 09:31:47;;;;;;;12.43;7.50;;;15.10;60.20;;;12.37;nan;100633.34;5042406;28;20640;-64
2023/01/20 09:34:20;;;;;;;10.50;7.13;;;13.40;64.60;;;11.06;nan;100633.06;5047653;28;20645;-65
2023/01/20 09:36:55;;;;;;;8.83;5.93;;;11.90;69.10;;;10.11;nan;100639.03;5035824;28;20635;-65
2023/01/20 09:45:24;;;;;;;5.80;3.97;;;9.70;84.40;;;8.58;nan;100642.47;5053802;28;21158;-64
2023/01/20 09:48:04;;;;;;;6.60;4.67;;;9.10;91.00;;;8.25;nan;100652.31;5031065;28;21078;-64
2023/01/20 09:53:57;;;;;;;4.67;3.40;;;8.00;98.60;;;6.82;nan;100657.38;5061074;28;20653;-64
2023/01/20 09:56:26;;;;;;;6.30;3.87;;;7.30;99.90;;;6.61;nan;100665.50;5044502;28;20626;-65
2023/01/20 09:59:07;;;;;;;5.30;3.37;;;7.00;99.90;;;6.54;nan;100661.59;5066461;28;21020;-64
2023/01/20 10:01:45;;;;;;;6.77;3.97;;;6.90;99.90;;;6.64;nan;100653.25;5051238;28;20638;-64
2023/01/20 10:04:36;;;;;;;3.63;2.73;;;7.00;99.90;;;6.66;nan;100663.50;5057845;28;20673;-65
2023/01/20 10:07:26;;;;;;;3.00;2.40;;;7.00;99.90;;;6.70;nan;100663.25;5069436;28;20687;-65
2023/01/20 10:10:08;;;;;;;3.77;2.43;;;7.00;99.90;;;6.76;nan;100667.25;5051326;28;20636;-65
2023/01/20 10:12:51;;;;;;;4.00;3.70;;;7.00;99.90;;;6.90;nan;100662.97;5029534;28;20993;-64
2023/01/20 10:15:55;;;;;;;4.70;2.90;;;7.10;99.90;;;7.10;nan;100663.59;5029023;28;20632;-64
2023/01/20 10:18:38;;;;;;;4.23;3.83;;;7.30;99.90;;;7.13;nan;100664.28;5020494;28;20671;-64
2023/01/20 10:21:19;;;;;;;4.30;3.03;;;7.40;99.90;;;7.17;nan;100659.75;5064641;28;20652;-65
2023/01/20 10:24:21;;;;;;;4.80;3.90;;;7.50;99.90;;;7.12;nan;100669.53;5023552;28;20627;-64
2023/01/20 10:27:00;;;;;;;5.00;3.90;;;7.40;99.90;;;7.22;nan;100658.53;5030326;28;21056;-65
2023/01/20 10:29:38;;;;;;;4.20;3.43;;;7.50;99.90;;;7.27;nan;100659.13;5049798;28;20651;-65
2023/01/20 10:32:32;;;;;;;5.83;4.30;;;7.60;99.90;;;7.51;nan;100669.84;5054449;28;20645;-64
2023/01/20 10:35:14;;;;;;;5.57;3.77;;;7.80;99.90;;;7.46;nan;100670.13;5036657;28;21186;-65
2023/01/20 10:37:41;;;;;;;4.37;3.00;;;7.80;99.90;;;7.23;nan;100669.75;5047626;28;20663;-65
2023/01/20 10:40:35;;;;;;;4.27;3.47;;;7.60;99.90;;;6.87;nan;100664.91;5049397;28;20636;-64
2023/01/20 10:43:20;;;;;;;3.20;2.83;;;7.20;99.90;;;6.51;nan;100672.13;5045913;28;20635;-64
2023/01/20 10:46:34;;;;;;;5.03;3.50;;;6.80;99.90;;;6.27;nan;100666.50;5051656;28;20686;-65
2023/01/20 10:49:57;;;;;;;4.77;4.10;;;6.60;99.90;;;6.15;nan;100668.00;5032686;28;20654;-64
2023/01/20 10:53:06;;;;;;;2.20;2.10;;;6.40;99.90;;;5.97;nan;100674.16;5049174;28;20699;-64
2023/01/20 10:56:28;;;;;;;3.00;2.77;;;6.30;99.90;;;5.66;nan;100666.28;5024095;28;21044;-64
2023/01/20 10:59:15;;;;;;;4.68;1.77;;;6.00;99.90;;;5.43;nan;100659.66;5039984;28;20659;-64
2023/01/20 11:01:50;;;;;;;3.90;2.15;;;5.70;99.90;;;5.28;nan;100669.97;5038401;28;20570;-64
2023/01/20 11:04:28;;;;;;;1.40;1.30;;;5.50;99.90;;;5.08;nan;100659.75;5019193;28;20218;-64
2023/01/20 11:06:59;;;;;;;10.20;2.72;;;5.40;99.90;;;5.01;nan;100666.09;5047992;28;20550;-65
2023/01/20 11:09:36;;;;;;;3.05;2.47;;;5.20;99.90;;;5.01;nan;100668.69;5045724;28;20279;-64
2023/01/20 11:12:13;;;;;;;4.57;2.45;;;5.20;99.90;;;5.10;nan;100673.44;5031264;28;20705;-64